WetterOnline ( https://www.wetteronline.de )

Wetter aktuell Erzgebirge/Ost

Aktuelles Wetter: Zinnwald (882m)

6-stündlich | Neueste Meldungen
Ortszeit Temperatur Wetter
Fr, 01.03. 1:00 4.1° C Nebel
Do, 29.02. 19:00 1.1° C Nebel
Do, 29.02. 13:00 0.7° C Nebel
Do, 29.02. 7:00 -0.6° C wolkig
Do, 29.02. 1:00 0.1° C wolkenlos
Mi, 28.02. 19:00 -0.8° C wolkenlos
Mi, 28.02. 13:00 1.4° C Nebel
Mi, 28.02. 7:00 0.0° C Nebel
Ortszeit Temperatur Wetter
Fr, 01.03. 2:00 4.4° C Nebel
Fr, 01.03. 1:50 4.4° C Nebel
Fr, 01.03. 1:40 4.4° C Nebel
Fr, 01.03. 1:30 4.4° C Nebel
Fr, 01.03. 1:20 4.4° C Nebel
Fr, 01.03. 1:10 4.3° C Nebel
Fr, 01.03. 1:00 4.1° C Nebel
Fr, 01.03. 0:30 3.9° C Nebel
Fr, 01.03. 0:00 3.8° C Nebel
Do, 29.02. 23:30 3.7° C Nebel
Do, 29.02. 23:00 3.8° C Nebel
Ortszeit Relative Feuchte Sichtweite
Fr, 01.03. 1:00 99% <100 m
Do, 29.02. 19:00 99% <100 m
Do, 29.02. 13:00 99% <100 m
Do, 29.02. 7:00 96% 4.1 km
Do, 29.02. 1:00 94% 11 km
Mi, 28.02. 19:00 91% 19 km
Mi, 28.02. 13:00 97% 8 km
Mi, 28.02. 7:00 99% 100 m
Ortszeit Relative Feuchte Sichtweite
Fr, 01.03. 2:00 99% <100 m
Fr, 01.03. 1:50 99% -
Fr, 01.03. 1:40 99% -
Fr, 01.03. 1:30 99% <100 m
Fr, 01.03. 1:20 99% -
Fr, 01.03. 1:10 99% -
Fr, 01.03. 1:00 99% <100 m
Fr, 01.03. 0:30 99% <100 m
Fr, 01.03. 0:00 99% <100 m
Do, 29.02. 23:30 99% <100 m
Do, 29.02. 23:00 99% <100 m
Ortszeit Niederschlagsmenge Niederschlagsart
Fr, 01.03. 1:00 0.0 l/m2 in 6 Std. -
Do, 29.02. 19:00 0.0 l/m2 in 12 Std. -
Do, 29.02. 13:00 0.0 l/m2 in 6 Std. -
Do, 29.02. 7:00 0.0 l/m2 in 12 Std. -
Do, 29.02. 1:00 0.0 l/m2 in 6 Std. -
Mi, 28.02. 19:00 0.0 l/m2 in 12 Std. -
Mi, 28.02. 13:00 0.0 l/m2 in 6 Std. -
Mi, 28.02. 7:00 0.1 l/m2 in 12 Std. Regen
Ortszeit Niederschlagsmenge Niederschlagsart
Fr, 01.03. 2:00 0.0 l/m2 in 1 Std. -
Fr, 01.03. 1:50 keine Meldung -
Fr, 01.03. 1:40 keine Meldung -
Fr, 01.03. 1:30 0.0 l/m2 in 30 Min -
Fr, 01.03. 1:20 keine Meldung -
Fr, 01.03. 1:10 keine Meldung -
Fr, 01.03. 1:00 0.0 l/m2 in 1 Std. -
Fr, 01.03. 0:30 0.0 l/m2 in 30 Min -
Fr, 01.03. 0:00 0.0 l/m2 in 1 Std. -
Do, 29.02. 23:30 0.0 l/m2 in 30 Min -
Do, 29.02. 23:00 0.0 l/m2 in 1 Std. -
Ortszeit Stärke Spitze Richtung
km/h Bft. km/h Grad Sektor
Fr, 01.03. 1:00 30 5 44 130° SO
Do, 29.02. 19:00 31 5 50 150° SO
Do, 29.02. 13:00 31 5 50 150° SO
Do, 29.02. 7:00 14 3 25 170° S
Do, 29.02. 1:00 14 3 22 200° S
Mi, 28.02. 19:00 11 2 24 240° SW
Mi, 28.02. 13:00 14 3 29 280° W
Mi, 28.02. 7:00 18 3 29 270° W
Ortszeit Stärke Spitze Richtung
km/h Bft. km/h Grad Sektor
Fr, 01.03. 2:00 31 5 43 130° SO
Fr, 01.03. 1:50 31 5 - 130° SO
Fr, 01.03. 1:40 33 5 - 130° SO
Fr, 01.03. 1:30 33 5 43 130° SO
Fr, 01.03. 1:20 33 5 - 130° SO
Fr, 01.03. 1:10 33 5 - 130° SO
Fr, 01.03. 1:00 30 5 39 130° SO
Fr, 01.03. 0:30 26 4 35 140° SO
Fr, 01.03. 0:00 25 4 32 140° SO
Do, 29.02. 23:30 24 4 33 140° SO
Do, 29.02. 23:00 22 4 36 150° SO
Ortszeit Untergrenze Bedeckung Gattung
total tief tief mittel hoch
Fr, 01.03. 1:00 <30 m 8/8 0/8 - - -
Do, 29.02. 19:00 <30 m 8/8 0/8 - - -
Do, 29.02. 13:00 <30 m 8/8 0/8 - - -
Do, 29.02. 7:00 330 m 5/8 5/8 - - -
Do, 29.02. 1:00 - 0/8 0/8 - - -
Mi, 28.02. 19:00 - 0/8 0/8 - - -
Mi, 28.02. 13:00 60 m 7/8 7/8 - - -
Mi, 28.02. 7:00 <30 m 8/8 0/8 - - -
Ortszeit Bedeckungsgrad in Achtel und Wolkenuntergrenze
Fr, 01.03. 2:00 8(<30m)
Fr, 01.03. 1:50 8(<30m)
Fr, 01.03. 1:40 8
Fr, 01.03. 1:30 8(<30m)
Fr, 01.03. 1:20 8(<30m)
Fr, 01.03. 1:10 8
Fr, 01.03. 1:00 8(<30m)
Fr, 01.03. 0:30 8(<30m)
Fr, 01.03. 0:00 8(<30m)
Do, 29.02. 23:30 8(<30m)
Do, 29.02. 23:00 8(<30m)
Ortszeit Stationsdruck (hPa) Tendenz (hPa in 3 Std.)
Fr, 01.03. 1:00 907 - 1,9
Do, 29.02. 19:00 910 - 1,4
Do, 29.02. 13:00 913 - 1,8
Do, 29.02. 7:00 916 - 0,7
Do, 29.02. 1:00 918 - 0,4
Mi, 28.02. 19:00 918 + 0,3
Mi, 28.02. 13:00 918 + 1,3
Mi, 28.02. 7:00 915 + 1,4
Ortszeit Stationsdruck (hPa) Tendenz (hPa in 3 Std.)
Fr, 01.03. 2:00 907 - 1,7
Fr, 01.03. 1:50 907 keine Meldung
Fr, 01.03. 1:40 907 keine Meldung
Fr, 01.03. 1:30 907 - 1,8
Fr, 01.03. 1:20 907 keine Meldung
Fr, 01.03. 1:10 907 keine Meldung
Fr, 01.03. 1:00 907 - 1,9
Fr, 01.03. 0:30 908 - 1,4
Fr, 01.03. 0:00 908 - 1,3
Do, 29.02. 23:30 908 - 1,4
Do, 29.02. 23:00 908 - 1,3
Ortszeit Schneehöhe (cm)
Fr, 01.03. 1:00 0
Do, 29.02. 19:00 0
Do, 29.02. 13:00 0
Do, 29.02. 7:00 0
Do, 29.02. 1:00 0
Mi, 28.02. 19:00 0
Mi, 28.02. 13:00 0
Mi, 28.02. 7:00 0
Ortszeit Schneehöhe (cm)
Fr, 01.03. 2:00 0
Fr, 01.03. 1:50 0
Fr, 01.03. 1:40 -
Fr, 01.03. 1:30 0
Fr, 01.03. 1:20 0
Fr, 01.03. 1:10 -
Fr, 01.03. 1:00 0
Fr, 01.03. 0:30 0
Fr, 01.03. 0:00 0
Do, 29.02. 23:30 0
Do, 29.02. 23:00 0
Link zu dieser Seite / Seite empfehlen

Das Wetter in ...